sensor_id;sensor_type;location;lat;lon;timestamp;pressure;altitude;pressure_sealevel;temperature;humidity
32237;BME280;18726;44.732;10.550;2023-01-28T00:02:46;101170.53;;;2.66;100.00
32237;BME280;18726;44.732;10.550;2023-01-28T00:05:50;101165.31;;;2.80;100.00
32237;BME280;18726;44.732;10.550;2023-01-28T00:08:54;101170.22;;;2.72;100.00
32237;BME280;18726;44.732;10.550;2023-01-28T00:11:58;101171.88;;;2.63;100.00
32237;BME280;18726;44.732;10.550;2023-01-28T00:15:02;101168.78;;;2.51;100.00
32237;BME280;18726;44.732;10.550;2023-01-28T00:18:05;101159.66;;;2.52;100.00
32237;BME280;18726;44.732;10.550;2023-01-28T00:21:14;101158.84;;;2.52;100.00
32237;BME280;18726;44.732;10.550;2023-01-28T00:24:18;101161.59;;;2.42;100.00
32237;BME280;18726;44.732;10.550;2023-01-28T00:27:22;101166.69;;;2.43;100.00
32237;BME280;18726;44.732;10.550;2023-01-28T00:30:26;101166.66;;;2.48;100.00
32237;BME280;18726;44.732;10.550;2023-01-28T00:33:30;101168.19;;;2.59;100.00
32237;BME280;18726;44.732;10.550;2023-01-28T00:36:34;101162.19;;;2.96;100.00
32237;BME280;18726;44.732;10.550;2023-01-28T00:39:42;101168.47;;;3.39;100.00
32237;BME280;18726;44.732;10.550;2023-01-28T00:42:45;101158.09;;;3.94;100.00
32237;BME280;18726;44.732;10.550;2023-01-28T00:45:50;101163.25;;;4.10;100.00
32237;BME280;18726;44.732;10.550;2023-01-28T00:48:54;101162.16;;;3.73;100.00
32237;BME280;18726;44.732;10.550;2023-01-28T00:51:58;101166.88;;;3.38;100.00
32237;BME280;18726;44.732;10.550;2023-01-28T00:55:01;101169.50;;;3.44;100.00
32237;BME280;18726;44.732;10.550;2023-01-28T00:58:05;101164.16;;;3.62;100.00
32237;BME280;18726;44.732;10.550;2023-01-28T01:01:11;101172.78;;;4.02;100.00
32237;BME280;18726;44.732;10.550;2023-01-28T01:04:15;101160.97;;;4.54;100.00
32237;BME280;18726;44.732;10.550;2023-01-28T01:07:30;101161.34;;;4.48;100.00
32237;BME280;18726;44.732;10.550;2023-01-28T01:10:45;101162.97;;;4.11;100.00
32237;BME280;18726;44.732;10.550;2023-01-28T01:14:01;101176.47;;;3.45;100.00
32237;BME280;18726;44.732;10.550;2023-01-28T01:17:07;101184.66;;;3.05;100.00
32237;BME280;18726;44.732;10.550;2023-01-28T01:20:16;101176.72;;;3.19;100.00
32237;BME280;18726;44.732;10.550;2023-01-28T01:23:20;101180.28;;;3.15;100.00
32237;BME280;18726;44.732;10.550;2023-01-28T01:26:24;101188.09;;;3.59;100.00
32237;BME280;18726;44.732;10.550;2023-01-28T01:29:30;101188.50;;;3.23;100.00
32237;BME280;18726;44.732;10.550;2023-01-28T01:32:36;101198.28;;;3.38;100.00
32237;BME280;18726;44.732;10.550;2023-01-28T01:35:40;101205.59;;;3.32;100.00
32237;BME280;18726;44.732;10.550;2023-01-28T01:38:44;101202.03;;;3.13;100.00
32237;BME280;18726;44.732;10.550;2023-01-28T01:41:48;101214.59;;;2.89;100.00
32237;BME280;18726;44.732;10.550;2023-01-28T01:44:59;101214.63;;;3.42;100.00
32237;BME280;18726;44.732;10.550;2023-01-28T01:48:20;101223.88;;;3.01;100.00
32237;BME280;18726;44.732;10.550;2023-01-28T01:51:29;101212.09;;;3.26;100.00
32237;BME280;18726;44.732;10.550;2023-01-28T01:54:36;101211.84;;;3.23;100.00
32237;BME280;18726;44.732;10.550;2023-01-28T01:57:41;101230.47;;;3.14;100.00
32237;BME280;18726;44.732;10.550;2023-01-28T02:00:46;101222.41;;;3.67;100.00
32237;BME280;18726;44.732;10.550;2023-01-28T02:03:59;101217.34;;;3.84;100.00
32237;BME280;18726;44.732;10.550;2023-01-28T02:07:05;101218.53;;;4.34;100.00
32237;BME280;18726;44.732;10.550;2023-01-28T02:10:12;101227.34;;;4.21;100.00
32237;BME280;18726;44.732;10.550;2023-01-28T02:13:18;101241.00;;;3.82;100.00
32237;BME280;18726;44.732;10.550;2023-01-28T02:16:24;101225.31;;;3.70;100.00
32237;BME280;18726;44.732;10.550;2023-01-28T02:19:59;101236.25;;;3.26;100.00
32237;BME280;18726;44.732;10.550;2023-01-28T02:26:50;101230.47;;;3.14;100.00
32237;BME280;18726;44.732;10.550;2023-01-28T02:30:06;101224.31;;;3.14;100.00
32237;BME280;18726;44.732;10.550;2023-01-28T02:33:17;101233.53;;;3.02;100.00
32237;BME280;18726;44.732;10.550;2023-01-28T02:39:55;101221.44;;;3.05;100.00
32237;BME280;18726;44.732;10.550;2023-01-28T02:43:00;101220.91;;;3.03;100.00
32237;BME280;18726;44.732;10.550;2023-01-28T02:49:52;101213.50;;;2.90;100.00
32237;BME280;18726;44.732;10.550;2023-01-28T02:56:44;101219.06;;;3.27;100.00
32237;BME280;18726;44.732;10.550;2023-01-28T03:00:26;101214.50;;;3.52;100.00
32237;BME280;18726;44.732;10.550;2023-01-28T03:03:40;101215.97;;;3.87;100.00
32237;BME280;18726;44.732;10.550;2023-01-28T03:06:50;101208.44;;;4.45;100.00
32237;BME280;18726;44.732;10.550;2023-01-28T03:09:55;101217.00;;;4.66;100.00
32237;BME280;18726;44.732;10.550;2023-01-28T03:13:01;101222.44;;;4.80;100.00
32237;BME280;18726;44.732;10.550;2023-01-28T03:16:24;101225.06;;;4.85;100.00
32237;BME280;18726;44.732;10.550;2023-01-28T03:19:46;101235.56;;;5.00;100.00
32237;BME280;18726;44.732;10.550;2023-01-28T03:23:13;101221.72;;;5.20;100.00
32237;BME280;18726;44.732;10.550;2023-01-28T03:26:47;101219.72;;;5.12;100.00
32237;BME280;18726;44.732;10.550;2023-01-28T03:30:16;101224.31;;;4.79;100.00
32237;BME280;18726;44.732;10.550;2023-01-28T03:33:46;101221.84;;;5.15;100.00
32237;BME280;18726;44.732;10.550;2023-01-28T03:37:09;101218.34;;;5.15;100.00
32237;BME280;18726;44.732;10.550;2023-01-28T03:40:13;101219.75;;;5.26;100.00
32237;BME280;18726;44.732;10.550;2023-01-28T03:43:20;101221.38;;;4.94;100.00
32237;BME280;18726;44.732;10.550;2023-01-28T03:46:26;101222.44;;;5.12;100.00
32237;BME280;18726;44.732;10.550;2023-01-28T03:49:30;101219.34;;;5.19;100.00
32237;BME280;18726;44.732;10.550;2023-01-28T03:52:34;101225.22;;;5.07;100.00
32237;BME280;18726;44.732;10.550;2023-01-28T03:55:59;101223.72;;;5.15;100.00
32237;BME280;18726;44.732;10.550;2023-01-28T03:59:03;101221.13;;;5.09;100.00
32237;BME280;18726;44.732;10.550;2023-01-28T04:02:08;101222.13;;;5.14;100.00
32237;BME280;18726;44.732;10.550;2023-01-28T04:05:13;101230.53;;;4.61;100.00
32237;BME280;18726;44.732;10.550;2023-01-28T04:08:24;101241.34;;;3.99;100.00
32237;BME280;18726;44.732;10.550;2023-01-28T04:11:50;101228.44;;;3.54;100.00
32237;BME280;18726;44.732;10.550;2023-01-28T04:15:01;101229.56;;;3.24;100.00
32237;BME280;18726;44.732;10.550;2023-01-28T04:18:08;101233.25;;;3.33;100.00
32237;BME280;18726;44.732;10.550;2023-01-28T04:21:13;101234.84;;;3.58;100.00
32237;BME280;18726;44.732;10.550;2023-01-28T04:24:17;101241.06;;;4.01;100.00
32237;BME280;18726;44.732;10.550;2023-01-28T04:27:21;101241.66;;;3.98;100.00
32237;BME280;18726;44.732;10.550;2023-01-28T04:30:26;101242.28;;;3.66;100.00
32237;BME280;18726;44.732;10.550;2023-01-28T04:33:49;101242.28;;;3.42;100.00
32237;BME280;18726;44.732;10.550;2023-01-28T04:37:01;101230.28;;;3.34;100.00
32237;BME280;18726;44.732;10.550;2023-01-28T04:40:19;101233.78;;;3.06;100.00
32237;BME280;18726;44.732;10.550;2023-01-28T04:43:31;101237.72;;;2.85;100.00
32237;BME280;18726;44.732;10.550;2023-01-28T04:47:00;101244.72;;;2.81;100.00
32237;BME280;18726;44.732;10.550;2023-01-28T04:50:18;101242.22;;;2.89;100.00
32237;BME280;18726;44.732;10.550;2023-01-28T04:53:41;101248.44;;;2.85;100.00
32237;BME280;18726;44.732;10.550;2023-01-28T04:57:00;101248.97;;;2.87;100.00
32237;BME280;18726;44.732;10.550;2023-01-28T05:00:04;101247.44;;;2.76;100.00
32237;BME280;18726;44.732;10.550;2023-01-28T05:03:08;101249.59;;;2.74;100.00
32237;BME280;18726;44.732;10.550;2023-01-28T05:06:12;101248.50;;;2.75;100.00
32237;BME280;18726;44.732;10.550;2023-01-28T05:09:19;101252.84;;;3.04;100.00
32237;BME280;18726;44.732;10.550;2023-01-28T05:12:22;101258.19;;;3.62;100.00
32237;BME280;18726;44.732;10.550;2023-01-28T05:15:26;101253.03;;;4.08;100.00
32237;BME280;18726;44.732;10.550;2023-01-28T05:18:31;101262.97;;;4.32;100.00
32237;BME280;18726;44.732;10.550;2023-01-28T05:21:45;101258.69;;;4.31;100.00
32237;BME280;18726;44.732;10.550;2023-01-28T05:25:00;101265.81;;;4.92;100.00
32237;BME280;18726;44.732;10.550;2023-01-28T05:28:06;101267.03;;;5.32;100.00
32237;BME280;18726;44.732;10.550;2023-01-28T05:31:10;101266.06;;;5.41;100.00
32237;BME280;18726;44.732;10.550;2023-01-28T05:34:14;101267.44;;;5.25;100.00
32237;BME280;18726;44.732;10.550;2023-01-28T05:37:17;101267.09;;;5.46;100.00
32237;BME280;18726;44.732;10.550;2023-01-28T05:40:22;101273.94;;;5.52;100.00
32237;BME280;18726;44.732;10.550;2023-01-28T05:43:27;101269.09;;;5.81;100.00
32237;BME280;18726;44.732;10.550;2023-01-28T05:46:52;101270.53;;;5.92;100.00
32237;BME280;18726;44.732;10.550;2023-01-28T05:50:14;101277.25;;;5.49;100.00
32237;BME280;18726;44.732;10.550;2023-01-28T05:53:41;101284.16;;;5.22;100.00
32237;BME280;18726;44.732;10.550;2023-01-28T05:56:45;101286.44;;;4.83;100.00
32237;BME280;18726;44.732;10.550;2023-01-28T05:59:50;101287.75;;;4.66;100.00
32237;BME280;18726;44.732;10.550;2023-01-28T06:02:54;101296.72;;;4.62;100.00
32237;BME280;18726;44.732;10.550;2023-01-28T06:06:00;101285.44;;;4.79;100.00
32237;BME280;18726;44.732;10.550;2023-01-28T06:09:04;101287.25;;;4.83;100.00
32237;BME280;18726;44.732;10.550;2023-01-28T06:12:09;101288.16;;;5.11;100.00
32237;BME280;18726;44.732;10.550;2023-01-28T06:15:25;101294.69;;;5.05;100.00
32237;BME280;18726;44.732;10.550;2023-01-28T06:18:38;101291.38;;;4.75;100.00
32237;BME280;18726;44.732;10.550;2023-01-28T06:21:43;101309.28;;;4.66;100.00
32237;BME280;18726;44.732;10.550;2023-01-28T06:24:48;101309.28;;;4.66;100.00
32237;BME280;18726;44.732;10.550;2023-01-28T06:27:51;101308.50;;;4.85;100.00
32237;BME280;18726;44.732;10.550;2023-01-28T06:30:56;101321.47;;;4.96;100.00
32237;BME280;18726;44.732;10.550;2023-01-28T06:33:59;101326.34;;;5.13;100.00
32237;BME280;18726;44.732;10.550;2023-01-28T06:37:04;101323.16;;;5.43;100.00
32237;BME280;18726;44.732;10.550;2023-01-28T06:40:08;101337.66;;;5.29;100.00
32237;BME280;18726;44.732;10.550;2023-01-28T06:43:12;101342.84;;;5.25;100.00
32237;BME280;18726;44.732;10.550;2023-01-28T06:46:16;101345.81;;;5.24;100.00
32237;BME280;18726;44.732;10.550;2023-01-28T06:49:20;101342.06;;;5.06;100.00
32237;BME280;18726;44.732;10.550;2023-01-28T06:52:24;101350.38;;;4.72;100.00
32237;BME280;18726;44.732;10.550;2023-01-28T06:55:28;101346.91;;;4.90;100.00
32237;BME280;18726;44.732;10.550;2023-01-28T06:58:31;101354.72;;;4.68;100.00
32237;BME280;18726;44.732;10.550;2023-01-28T07:01:35;101367.03;;;4.07;100.00
32237;BME280;18726;44.732;10.550;2023-01-28T07:04:39;101368.38;;;3.81;100.00
32237;BME280;18726;44.732;10.550;2023-01-28T07:07:43;101381.81;;;3.52;100.00
32237;BME280;18726;44.732;10.550;2023-01-28T07:10:49;101375.22;;;4.21;100.00
32237;BME280;18726;44.732;10.550;2023-01-28T07:13:52;101381.41;;;4.64;100.00
32237;BME280;18726;44.732;10.550;2023-01-28T07:16:56;101382.13;;;4.51;100.00
32237;BME280;18726;44.732;10.550;2023-01-28T07:20:01;101385.19;;;4.63;100.00
32237;BME280;18726;44.732;10.550;2023-01-28T07:23:04;101385.22;;;4.39;100.00
32237;BME280;18726;44.732;10.550;2023-01-28T07:26:08;101388.66;;;4.45;100.00
32237;BME280;18726;44.732;10.550;2023-01-28T07:29:13;101396.28;;;4.62;100.00
32237;BME280;18726;44.732;10.550;2023-01-28T07:32:16;101398.81;;;4.72;100.00
32237;BME280;18726;44.732;10.550;2023-01-28T07:35:21;101399.19;;;5.03;100.00
32237;BME280;18726;44.732;10.550;2023-01-28T07:38:25;101406.03;;;5.14;100.00
32237;BME280;18726;44.732;10.550;2023-01-28T07:41:29;101409.88;;;5.27;100.00
32237;BME280;18726;44.732;10.550;2023-01-28T07:44:40;101426.84;;;5.27;100.00
32237;BME280;18726;44.732;10.550;2023-01-28T07:47:44;101429.53;;;5.27;100.00
32237;BME280;18726;44.732;10.550;2023-01-28T07:50:48;101428.84;;;5.73;100.00
32237;BME280;18726;44.732;10.550;2023-01-28T07:53:53;101435.91;;;6.01;100.00
32237;BME280;18726;44.732;10.550;2023-01-28T10:14:29;101564.00;;;30.78;28.64
32237;BME280;18726;44.732;10.550;2023-01-28T10:17:41;101567.09;;;30.71;28.21
32237;BME280;18726;44.732;10.550;2023-01-28T10:20:53;101560.59;;;31.02;27.80
32237;BME280;18726;44.732;10.550;2023-01-28T10:24:05;101561.34;;;31.66;27.26
32237;BME280;18726;44.732;10.550;2023-01-28T10:27:22;101558.38;;;31.79;26.86
32237;BME280;18726;44.732;10.550;2023-01-28T10:30:29;101560.13;;;32.18;26.36
32237;BME280;18726;44.732;10.550;2023-01-28T10:33:37;101554.66;;;32.15;26.63
32237;BME280;18726;44.732;10.550;2023-01-28T10:36:42;101549.38;;;31.11;25.51
32237;BME280;18726;44.732;10.550;2023-01-28T10:39:46;101554.91;;;31.93;25.30
32237;BME280;18726;44.732;10.550;2023-01-28T10:42:50;101551.97;;;32.20;25.12
32237;BME280;18726;44.732;10.550;2023-01-28T10:45:58;101546.25;;;30.81;27.72
32237;BME280;18726;44.732;10.550;2023-01-28T10:49:26;101542.16;;;30.64;27.60
32237;BME280;18726;44.732;10.550;2023-01-28T10:52:30;101533.97;;;29.68;28.67
32237;BME280;18726;44.732;10.550;2023-01-28T10:55:47;101521.91;;;26.63;34.11
32237;BME280;18726;44.732;10.550;2023-01-28T10:59:02;101520.41;;;25.34;35.03
32237;BME280;18726;44.732;10.550;2023-01-28T11:02:27;101523.66;;;24.08;35.96
32237;BME280;18726;44.732;10.550;2023-01-28T11:05:31;101509.91;;;23.03;36.50
32237;BME280;18726;44.732;10.550;2023-01-28T11:08:42;101514.63;;;21.95;42.65
32237;BME280;18726;44.732;10.550;2023-01-28T11:11:46;101505.44;;;21.18;41.43
32237;BME280;18726;44.732;10.550;2023-01-28T11:15:04;101507.88;;;21.02;45.21
32237;BME280;18726;44.732;10.550;2023-01-28T11:18:17;101494.88;;;20.77;42.90
32237;BME280;18726;44.732;10.550;2023-01-28T11:21:24;101507.09;;;20.62;47.07
32237;BME280;18726;44.732;10.550;2023-01-28T11:24:31;101501.59;;;20.41;45.06
32237;BME280;18726;44.732;10.550;2023-01-28T11:27:36;101490.50;;;20.12;50.07
32237;BME280;18726;44.732;10.550;2023-01-28T11:30:40;101495.16;;;19.98;48.50
32237;BME280;18726;44.732;10.550;2023-01-28T11:33:54;101493.53;;;19.75;51.87
32237;BME280;18726;44.732;10.550;2023-01-28T11:37:03;101485.47;;;19.35;53.72
32237;BME280;18726;44.732;10.550;2023-01-28T11:40:18;101482.31;;;18.67;50.34
32237;BME280;18726;44.732;10.550;2023-01-28T11:43:27;101490.75;;;18.04;47.85
32237;BME280;18726;44.732;10.550;2023-01-28T11:47:02;101484.50;;;18.07;54.85
32237;BME280;18726;44.732;10.550;2023-01-28T11:50:30;101474.84;;;17.83;56.18
32237;BME280;18726;44.732;10.550;2023-01-28T12:04:16;101450.84;;;17.46;63.78
32237;BME280;18726;44.732;10.550;2023-01-28T12:07:34;101448.25;;;17.27;62.85
32237;BME280;18726;44.732;10.550;2023-01-28T12:10:59;101445.72;;;17.15;69.13
32237;BME280;18726;44.732;10.550;2023-01-28T12:27:51;101418.06;;;16.48;65.34
32237;BME280;18726;44.732;10.550;2023-01-28T12:35:23;101416.16;;;15.80;71.64
32237;BME280;18726;44.732;10.550;2023-01-28T12:42:31;101404.47;;;15.83;79.43
32237;BME280;18726;44.732;10.550;2023-01-28T12:45:41;101401.97;;;15.97;76.75
32237;BME280;18726;44.732;10.550;2023-01-28T12:52:34;101405.34;;;15.87;71.07
32237;BME280;18726;44.732;10.550;2023-01-28T12:55:53;101396.06;;;15.53;69.05
32237;BME280;18726;44.732;10.550;2023-01-28T12:59:19;101405.94;;;15.00;65.98
32237;BME280;18726;44.732;10.550;2023-01-28T13:02:33;101395.09;;;14.68;65.09
32237;BME280;18726;44.732;10.550;2023-01-28T13:05:42;101401.56;;;13.54;58.30
32237;BME280;18726;44.732;10.550;2023-01-28T13:08:50;101398.16;;;12.64;60.54
32237;BME280;18726;44.732;10.550;2023-01-28T13:11:59;101394.28;;;12.65;72.64
32237;BME280;18726;44.732;10.550;2023-01-28T13:15:04;101387.44;;;12.83;75.96
32237;BME280;18726;44.732;10.550;2023-01-28T13:21:35;101396.69;;;14.06;85.98
32237;BME280;18726;44.732;10.550;2023-01-28T13:24:39;101398.28;;;14.39;86.42
32237;BME280;18726;44.732;10.550;2023-01-28T13:27:58;101399.25;;;14.62;81.86
32237;BME280;18726;44.732;10.550;2023-01-28T13:31:03;101402.84;;;14.66;76.25
32237;BME280;18726;44.732;10.550;2023-01-28T13:34:24;101405.97;;;13.30;66.94
32237;BME280;18726;44.732;10.550;2023-01-28T13:37:37;101404.41;;;13.73;71.42
32237;BME280;18726;44.732;10.550;2023-01-28T13:40:42;101412.72;;;13.92;76.34
32237;BME280;18726;44.732;10.550;2023-01-28T13:43:47;101409.22;;;14.07;71.61
32237;BME280;18726;44.732;10.550;2023-01-28T13:46:58;101409.91;;;13.45;64.14
32237;BME280;18726;44.732;10.550;2023-01-28T13:50:04;101409.91;;;11.95;57.67
32237;BME280;18726;44.732;10.550;2023-01-28T13:53:43;101414.69;;;10.91;62.57
32237;BME280;18726;44.732;10.550;2023-01-28T13:56:54;101411.41;;;11.39;84.74
32237;BME280;18726;44.732;10.550;2023-01-28T14:00:24;101411.16;;;11.65;81.00
32237;BME280;18726;44.732;10.550;2023-01-28T14:10:29;101416.75;;;12.74;88.33
32237;BME280;18726;44.732;10.550;2023-01-28T14:13:55;101421.66;;;12.44;77.68
32237;BME280;18726;44.732;10.550;2023-01-28T14:17:12;101422.50;;;11.55;75.13
32237;BME280;18726;44.732;10.550;2023-01-28T14:20:33;101424.19;;;11.59;91.65
32237;BME280;18726;44.732;10.550;2023-01-28T14:23:56;101426.94;;;11.92;98.20
32237;BME280;18726;44.732;10.550;2023-01-28T14:30:28;101434.13;;;12.21;92.35
32237;BME280;18726;44.732;10.550;2023-01-28T14:33:36;101434.84;;;11.85;76.08
32237;BME280;18726;44.732;10.550;2023-01-28T14:36:43;101435.38;;;11.45;78.72
32237;BME280;18726;44.732;10.550;2023-01-28T14:39:54;101431.78;;;11.33;91.11
32237;BME280;18726;44.732;10.550;2023-01-28T14:43:00;101439.47;;;11.52;100.00
32237;BME280;18726;44.732;10.550;2023-01-28T14:49:28;101446.88;;;11.84;100.00
32237;BME280;18726;44.732;10.550;2023-01-28T14:59:42;101452.84;;;12.23;98.16
32237;BME280;18726;44.732;10.550;2023-01-28T15:02:49;101453.78;;;12.27;100.00
32237;BME280;18726;44.732;10.550;2023-01-28T15:06:12;101452.84;;;12.23;100.00
32237;BME280;18726;44.732;10.550;2023-01-28T15:09:16;101466.69;;;12.17;100.00
32237;BME280;18726;44.732;10.550;2023-01-28T15:12:19;101458.53;;;12.17;100.00
32237;BME280;18726;44.732;10.550;2023-01-28T15:15:29;101464.22;;;12.12;100.00
32237;BME280;18726;44.732;10.550;2023-01-28T15:18:39;101459.84;;;11.99;100.00
32237;BME280;18726;44.732;10.550;2023-01-28T15:21:44;101464.72;;;11.94;100.00
32237;BME280;18726;44.732;10.550;2023-01-28T15:24:48;101465.03;;;11.92;100.00
32237;BME280;18726;44.732;10.550;2023-01-28T15:27:54;101466.94;;;11.59;100.00
32237;BME280;18726;44.732;10.550;2023-01-28T15:30:58;101465.09;;;11.50;100.00
32237;BME280;18726;44.732;10.550;2023-01-28T15:38:23;101473.16;;;11.59;100.00
32237;BME280;18726;44.732;10.550;2023-01-28T15:41:33;101478.47;;;11.56;100.00
32237;BME280;18726;44.732;10.550;2023-01-28T15:44:56;101478.44;;;11.43;100.00
32237;BME280;18726;44.732;10.550;2023-01-28T15:48:04;101484.47;;;11.49;100.00
32237;BME280;18726;44.732;10.550;2023-01-28T15:51:18;101486.44;;;11.61;100.00
32237;BME280;18726;44.732;10.550;2023-01-28T15:54:22;101491.63;;;11.74;100.00
32237;BME280;18726;44.732;10.550;2023-01-28T15:57:31;101502.38;;;11.71;100.00
32237;BME280;18726;44.732;10.550;2023-01-28T16:00:37;101494.84;;;11.76;100.00
32237;BME280;18726;44.732;10.550;2023-01-28T16:03:43;101503.81;;;11.27;97.17
32237;BME280;18726;44.732;10.550;2023-01-28T16:06:47;101506.06;;;10.74;98.87
32237;BME280;18726;44.732;10.550;2023-01-28T16:09:53;101513.56;;;10.39;100.00
32237;BME280;18726;44.732;10.550;2023-01-28T16:13:05;101502.31;;;9.77;94.02
32237;BME280;18726;44.732;10.550;2023-01-28T16:16:14;101509.63;;;9.33;93.51
32237;BME280;18726;44.732;10.550;2023-01-28T16:22:35;101509.56;;;8.99;100.00
32237;BME280;18726;44.732;10.550;2023-01-28T16:25:39;101501.81;;;9.40;100.00
32237;BME280;18726;44.732;10.550;2023-01-28T16:28:43;101513.97;;;9.52;100.00
32237;BME280;18726;44.732;10.550;2023-01-28T16:31:47;101517.09;;;9.28;100.00
32237;BME280;18726;44.732;10.550;2023-01-28T16:34:50;101523.28;;;8.94;100.00
32237;BME280;18726;44.732;10.550;2023-01-28T16:37:54;101523.47;;;8.66;100.00
32237;BME280;18726;44.732;10.550;2023-01-28T16:40:58;101536.94;;;8.49;100.00
32237;BME280;18726;44.732;10.550;2023-01-28T16:44:02;101536.72;;;8.37;100.00
32237;BME280;18726;44.732;10.550;2023-01-28T16:47:08;101537.13;;;8.30;100.00
32237;BME280;18726;44.732;10.550;2023-01-28T16:50:13;101535.97;;;8.23;100.00
32237;BME280;18726;44.732;10.550;2023-01-28T16:53:24;101545.44;;;8.11;100.00
32237;BME280;18726;44.732;10.550;2023-01-28T16:56:30;101552.84;;;7.97;100.00
32237;BME280;18726;44.732;10.550;2023-01-28T16:59:34;101551.41;;;7.77;100.00
32237;BME280;18726;44.732;10.550;2023-01-28T17:02:38;101550.25;;;7.56;100.00
32237;BME280;18726;44.732;10.550;2023-01-28T17:05:42;101549.91;;;7.35;100.00
32237;BME280;18726;44.732;10.550;2023-01-28T17:08:45;101558.22;;;7.25;100.00
32237;BME280;18726;44.732;10.550;2023-01-28T17:11:50;101561.94;;;7.02;100.00
32237;BME280;18726;44.732;10.550;2023-01-28T17:14:54;101556.94;;;6.82;100.00
32237;BME280;18726;44.732;10.550;2023-01-28T17:17:57;101561.72;;;6.71;100.00
32237;BME280;18726;44.732;10.550;2023-01-28T17:21:05;101568.63;;;6.63;100.00
32237;BME280;18726;44.732;10.550;2023-01-28T17:24:09;101571.00;;;6.51;100.00
32237;BME280;18726;44.732;10.550;2023-01-28T17:27:13;101581.97;;;6.41;100.00
32237;BME280;18726;44.732;10.550;2023-01-28T17:30:18;101575.66;;;6.32;100.00
32237;BME280;18726;44.732;10.550;2023-01-28T17:33:22;101580.63;;;6.25;100.00
32237;BME280;18726;44.732;10.550;2023-01-28T17:36:26;101588.28;;;6.18;100.00
32237;BME280;18726;44.732;10.550;2023-01-28T17:39:30;101587.97;;;6.05;100.00
32237;BME280;18726;44.732;10.550;2023-01-28T17:42:33;101593.94;;;6.02;100.00
32237;BME280;18726;44.732;10.550;2023-01-28T17:45:37;101594.66;;;5.89;100.00
32237;BME280;18726;44.732;10.550;2023-01-28T17:48:41;101602.28;;;5.82;100.00
32237;BME280;18726;44.732;10.550;2023-01-28T17:51:48;101609.44;;;5.73;100.00
32237;BME280;18726;44.732;10.550;2023-01-28T17:54:51;101608.41;;;5.69;100.00
32237;BME280;18726;44.732;10.550;2023-01-28T17:57:55;101611.91;;;5.69;100.00
32237;BME280;18726;44.732;10.550;2023-01-28T18:01:07;101615.19;;;5.85;100.00
32237;BME280;18726;44.732;10.550;2023-01-28T18:04:12;101617.19;;;5.98;100.00
32237;BME280;18726;44.732;10.550;2023-01-28T18:07:15;101623.22;;;6.28;100.00
32237;BME280;18726;44.732;10.550;2023-01-28T18:10:19;101626.56;;;6.20;100.00
32237;BME280;18726;44.732;10.550;2023-01-28T18:13:23;101620.69;;;7.10;100.00
32237;BME280;18726;44.732;10.550;2023-01-28T18:16:27;101625.66;;;7.03;100.00
32237;BME280;18726;44.732;10.550;2023-01-28T18:19:31;101631.41;;;7.15;100.00
32237;BME280;18726;44.732;10.550;2023-01-28T18:22:34;101633.00;;;6.56;100.00
32237;BME280;18726;44.732;10.550;2023-01-28T18:25:38;101640.72;;;6.12;100.00
32237;BME280;18726;44.732;10.550;2023-01-28T18:28:42;101643.50;;;5.83;100.00
32237;BME280;18726;44.732;10.550;2023-01-28T18:31:46;101634.03;;;5.85;100.00
32237;BME280;18726;44.732;10.550;2023-01-28T18:34:50;101638.13;;;6.71;100.00
32237;BME280;18726;44.732;10.550;2023-01-28T18:37:53;101646.78;;;6.03;100.00
32237;BME280;18726;44.732;10.550;2023-01-28T18:40:58;101654.53;;;5.86;100.00
32237;BME280;18726;44.732;10.550;2023-01-28T18:44:01;101655.94;;;5.60;100.00
32237;BME280;18726;44.732;10.550;2023-01-28T18:47:05;101656.28;;;5.53;100.00
32237;BME280;18726;44.732;10.550;2023-01-28T18:50:08;101653.56;;;5.34;100.00
32237;BME280;18726;44.732;10.550;2023-01-28T18:53:12;101657.91;;;5.30;100.00
32237;BME280;18726;44.732;10.550;2023-01-28T18:56:16;101665.00;;;5.21;100.00
32237;BME280;18726;44.732;10.550;2023-01-28T18:59:19;101660.75;;;5.63;100.00
32237;BME280;18726;44.732;10.550;2023-01-28T19:02:23;101666.66;;;5.65;100.00
32237;BME280;18726;44.732;10.550;2023-01-28T19:05:27;101668.94;;;6.00;100.00
32237;BME280;18726;44.732;10.550;2023-01-28T19:08:32;101676.25;;;5.76;100.00
32237;BME280;18726;44.732;10.550;2023-01-28T19:11:35;101683.16;;;5.39;100.00
32237;BME280;18726;44.732;10.550;2023-01-28T19:14:40;101677.75;;;5.39;100.00
32237;BME280;18726;44.732;10.550;2023-01-28T19:17:43;101683.63;;;5.47;100.00
32237;BME280;18726;44.732;10.550;2023-01-28T19:20:47;101688.59;;;5.34;100.00
32237;BME280;18726;44.732;10.550;2023-01-28T19:24:03;101695.44;;;5.22;100.00
32237;BME280;18726;44.732;10.550;2023-01-28T19:27:09;101690.59;;;5.48;100.00
32237;BME280;18726;44.732;10.550;2023-01-28T19:30:12;101699.53;;;5.19;100.00
32237;BME280;18726;44.732;10.550;2023-01-28T19:33:16;101690.13;;;5.40;100.00
32237;BME280;18726;44.732;10.550;2023-01-28T19:36:21;101693.56;;;5.70;100.00
32237;BME280;18726;44.732;10.550;2023-01-28T19:39:24;101691.50;;;5.62;100.00
32237;BME280;18726;44.732;10.550;2023-01-28T19:42:28;101691.50;;;5.38;100.00
32237;BME280;18726;44.732;10.550;2023-01-28T19:45:32;101700.53;;;5.23;100.00
32237;BME280;18726;44.732;10.550;2023-01-28T19:48:35;101698.63;;;5.00;100.00
32237;BME280;18726;44.732;10.550;2023-01-28T19:51:39;101705.00;;;5.09;100.00
32237;BME280;18726;44.732;10.550;2023-01-28T19:54:43;101702.50;;;5.18;100.00